This is the latest recevied weather packets stored in our database for station/object KD7JB. If no packets are shown the sender has not sent any weather packets the latest 1 day(s).
| Time | Temp. | Humidity | Pressure | Rain* | Wind** | Luminosity | Snow |
|---|---|---|---|---|---|---|---|
| 1778081725 | 16.67° C | 49% | 1175.5 hPa | 0 mm | - | 351 W/m² | - |
| 1778078696 | 15.56° C | 47% | 1175.5 hPa | 0 mm | - | 211 W/m² | - |
| 1778076882 | 15° C | 48% | 1175.4 hPa | 0 mm | - | 125 W/m² | - |
| 1778076277 | 15° C | 46% | 1175.5 hPa | 0 mm | - | 100 W/m² | - |
| 1778075367 | 14.44° C | 48% | 1175.4 hPa | 0 mm | - | 32 W/m² | - |
| 1778075063 | 14.44° C | 48% | 1175.4 hPa | 0 mm | - | 47 W/m² | - |
| 1778072035 | 13.89° C | 49% | 1175.2 hPa | 0 mm | - | 11 W/m² | - |
| 1778071733 | 13.89° C | 48% | 1175.2 hPa | 0 mm | - | 8 W/m² | - |
| 1778071127 | 13.89° C | 48% | 1175.3 hPa | 0 mm | - | 4 W/m² | - |
| 1778069311 | 13.89° C | 48% | 1175.2 hPa | 0 mm | - | 0 W/m² | - |
| 1778069009 | 14.44° C | 48% | 1175.1 hPa | 0 mm | - | 0 W/m² | - |
| 1778068706 | 13.89° C | 49% | 1175.1 hPa | 0 mm | - | 0 W/m² | - |
| 1778068102 | 13.89° C | 50% | 1175.1 hPa | 0 mm | - | 0 W/m² | - |
| 1778067498 | 13.89° C | 50% | 1175.2 hPa | 0 mm | - | 0 W/m² | - |
| 1778067195 | 13.89° C | 50% | 1175.1 hPa | 0 mm | - | 0 W/m² | - |
| 1778066589 | 13.89° C | 50% | 1175.3 hPa | 0 mm | - | 0 W/m² | - |
| 1778066286 | 13.89° C | 50% | 1175.2 hPa | 0 mm | - | 0 W/m² | - |
| 1778064772 | 14.44° C | 50% | 1175.1 hPa | 0 mm | - | 0 W/m² | - |
| 1778064167 | 14.44° C | 49% | 1175.1 hPa | 0 mm | - | 0 W/m² | - |
| 1778063864 | 15° C | 48% | 1175.1 hPa | 0 mm | - | 0 W/m² | - |
| 1778063259 | 15° C | 48% | 1175.1 hPa | 0 mm | - | 0 W/m² | - |
| 1778062957 | 15° C | 48% | 1174.8 hPa | 0 mm | - | 0 W/m² | - |
| 1778062350 | 15° C | 47% | 1174.8 hPa | 0 mm | - | 0 W/m² | - |
| 1778062048 | 15° C | 47% | 1174.8 hPa | 0 mm | - | 0 W/m² | - |
| 1778061746 | 15° C | 48% | 1174.8 hPa | 0 mm | - | 0 W/m² | - |
* Rain latest hour (hover to see other rain measurements)
** Current wind speed in m/s (hover to see current wind gust speed)